Time;durP1;ratioP1;P1;durP2;ratioP2;P2;SDS_P1;SDS_P2;PMS_P1;PMS_P2;Temp;Humidity;BMP_temperature;BMP_pressure;BME280_temperature;BME280_humidity;BME280_pressure;Samples;Min_cycle;Max_cycle;Signal;HPM_P1;HPM_P2
2023/04/15 00:00:03;;;;;;;;;14.50;13.00;;;;;11.68;68.90;100370.47;2015586;28;2792975;-73
2023/04/15 00:01:17;;;;;;;;;11.50;11.00;;;;;11.67;69.13;100369.63;1993647;28;2796088;-73
2023/04/15 00:02:28;;;;;;;;;17.00;11.50;;;;;11.68;69.03;100370.47;1998433;27;2804406;-73
2023/04/15 00:03:39;;;;;;;;;12.50;12.00;;;;;11.67;69.02;100369.63;2011094;28;2789843;-73
2023/04/15 00:04:50;;;;;;;;;13.00;11.00;;;;;11.67;69.22;100359.09;1995235;28;2789834;-73
2023/04/15 00:06:01;;;;;;;;;12.00;12.00;;;;;11.68;69.20;100366.03;2032609;28;2802361;-73
2023/04/15 00:07:13;;;;;;;;;15.50;13.50;;;;;11.68;69.03;100355.50;2033139;27;2785744;-73
2023/04/15 00:08:24;;;;;;;;;14.50;13.00;;;;;11.68;69.12;100359.94;2005915;27;2780565;-73
2023/04/15 00:09:35;;;;;;;;;14.25;10.25;;;;;11.67;69.09;100351.19;2026799;27;1825293;-73
2023/04/15 00:10:48;;;;;;;;;13.75;12.50;;;;;11.67;69.03;100353.81;2043287;27;1842011;-73
2023/04/15 00:11:59;;;;;;;;;17.00;13.33;;;;;11.68;69.41;100349.41;2022535;28;2808548;-73
2023/04/15 00:13:10;;;;;;;;;15.50;14.00;;;;;11.68;69.03;100347.63;2011506;28;2804433;-73
2023/04/15 00:14:21;;;;;;;;;11.00;11.00;;;;;11.68;69.13;100349.41;1994882;27;3510651;-73
2023/04/15 00:15:32;;;;;;;;;16.00;15.00;;;;;11.68;69.05;100338.88;2041983;27;2810675;-73
2023/04/15 00:16:43;;;;;;;;;18.00;14.00;;;;;11.67;69.05;100343.28;2031743;27;2813328;-73
2023/04/15 00:17:54;;;;;;;;;12.00;12.00;;;;;11.66;69.01;100341.56;2025735;27;2801268;-73
2023/04/15 00:19:05;;;;;;;;;14.00;14.00;;;;;11.66;68.95;100341.56;2024640;27;2814888;-73
2023/04/15 00:20:16;;;;;;;;;13.00;13.00;;;;;11.66;69.07;100333.66;2025632;27;2811735;-73
2023/04/15 00:21:27;;;;;;;;;12.00;12.00;;;;;11.65;69.27;100331.97;2014871;27;2804457;-73
2023/04/15 00:22:41;;;;;;;;;12.00;11.83;;;;;11.67;68.86;100331.91;2051913;28;1831556;-73
2023/04/15 00:23:52;;;;;;;;;12.00;9.50;;;;;11.66;68.91;100323.13;2002970;27;2772191;-73
2023/04/15 00:25:03;;;;;;;;;12.00;12.00;;;;;11.66;68.95;100327.53;2022372;27;2802373;-73
2023/04/15 00:26:14;;;;;;;;;15.00;9.00;;;;;11.66;68.98;100322.28;2013471;27;3501248;-73
2023/04/15 00:27:25;;;;;;;;;11.75;9.25;;;;;11.65;69.12;100324.09;2058376;27;1848214;-73
2023/04/15 00:28:36;;;;;;;;;12.50;11.50;;;;;11.66;69.07;100319.66;2021845;28;2807576;-73
2023/04/15 00:29:47;;;;;;;;;13.50;12.00;;;;;11.66;69.31;100317.00;2042029;28;2801340;-73
2023/04/15 00:30:58;;;;;;;;;13.00;11.00;;;;;11.66;69.01;100315.25;2016217;27;2781514;-74
2023/04/15 00:32:09;;;;;;;;;14.00;12.33;;;;;11.65;69.17;100318.81;2063994;27;1857589;-73
2023/04/15 00:33:20;;;;;;;;;10.00;10.00;;;;;11.65;69.22;100310.91;1996456;28;3505446;-73
2023/04/15 00:34:31;;;;;;;;;13.00;11.00;;;;;11.65;68.97;100313.56;2028991;28;2789862;-73
2023/04/15 00:35:42;;;;;;;;;11.00;10.00;;;;;11.66;68.89;100314.38;2035433;27;3504383;-73
2023/04/15 00:36:52;;;;;;;;;9.33;7.67;;;;;11.65;69.09;100310.06;2046881;27;2748275;-73
2023/04/15 00:38:06;;;;;;;;;12.75;10.50;;;;;11.66;68.89;100311.75;2051292;28;1854472;-73
2023/04/15 00:39:16;;;;;;;;;12.00;9.00;;;;;11.65;69.23;100313.56;2023528;27;2773723;-74
2023/04/15 00:40:27;;;;;;;;;10.25;10.25;;;;;11.65;69.03;100313.56;2063163;27;1821176;-74
2023/04/15 00:41:38;;;;;;;;;10.00;9.00;;;;;11.65;69.03;100305.66;2003321;27;2773201;-73
2023/04/15 00:42:51;;;;;;;;;11.67;11.67;;;;;11.64;69.01;100301.31;2046739;28;1825310;-73
2023/04/15 00:44:03;;;;;;;;;12.25;10.75;;;;;11.64;69.05;100298.66;2009027;28;1839892;-73
2023/04/15 00:45:14;;;;;;;;;11.75;10.50;;;;;11.65;68.79;100304.78;2043141;27;1841916;-74
2023/04/15 00:46:28;;;;;;;;;6.17;5.83;;;;;11.65;69.03;100303.03;2055691;27;2745059;-74
2023/04/15 00:47:41;;;;;;;;;14.00;10.50;;;;;11.63;69.25;100299.56;2023931;27;2794132;-73
2023/04/15 00:48:53;;;;;;;;;12.50;12.50;;;;;11.65;68.93;100299.53;2024046;28;2794020;-73
2023/04/15 00:50:05;;;;;;;;;12.75;10.25;;;;;11.64;69.17;100296.03;2044880;27;1838838;-73
2023/04/15 00:51:16;;;;;;;;;11.00;11.00;;;;;11.64;69.13;100296.03;2027869;27;2787767;-73
2023/04/15 00:52:27;;;;;;;;;11.33;10.00;;;;;11.64;69.01;100301.31;2021793;28;3505527;-73
2023/04/15 00:53:38;;;;;;;;;12.00;11.67;;;;;11.64;69.07;100296.03;2054245;27;1841996;-73
2023/04/15 00:54:50;;;;;;;;;14.00;13.50;;;;;11.65;69.21;100296.91;2008226;27;2780514;-73
2023/04/15 00:56:00;;;;;;;;;13.00;13.00;;;;;11.65;69.22;100294.25;2031070;27;2783995;-73
2023/04/15 00:57:11;;;;;;;;;13.50;13.50;;;;;11.65;68.59;100296.91;2043523;27;2791894;-73
2023/04/15 00:58:23;;;;;;;;;15.25;13.25;;;;;11.65;68.97;100291.63;2051872;27;1833659;-73
2023/04/15 00:59:34;;;;;;;;;16.50;14.00;;;;;11.64;69.14;100296.03;2002812;27;2816933;-73
2023/04/15 01:00:45;;;;;;;;;17.50;14.00;;;;;11.65;69.21;100286.38;2006328;27;2808560;-73
2023/04/15 01:01:56;;;;;;;;;15.00;14.00;;;;;11.64;69.08;100284.66;1994946;28;2806516;-73
2023/04/15 01:03:07;;;;;;;;;19.50;13.50;;;;;11.64;68.97;100289.91;2010229;27;2820033;-73
2023/04/15 01:04:18;;;;;;;;;17.00;14.00;;;;;11.64;69.05;100288.13;2009573;27;2816945;-73
2023/04/15 01:05:30;;;;;;;;;15.50;13.50;;;;;11.63;69.21;100283.78;2043673;27;2803455;-73
2023/04/15 01:06:41;;;;;;;;;16.00;14.75;;;;;11.63;69.20;100288.22;2021311;27;1845140;-73
2023/04/15 01:07:53;;;;;;;;;12.50;12.00;;;;;11.62;69.26;100286.50;2046123;27;2806555;-73
2023/04/15 01:09:04;;;;;;;;;15.00;14.50;;;;;11.62;68.91;100284.72;2000173;28;2801296;-73
2023/04/15 01:10:15;;;;;;;;;12.00;12.00;;;;;11.62;69.19;100284.72;2011322;28;2793000;-73
2023/04/15 01:11:27;;;;;;;;;16.50;13.50;;;;;11.62;69.49;100282.09;2040930;27;2809666;-73
2023/04/15 01:12:38;;;;;;;;;17.50;13.00;;;;;11.63;69.44;100294.31;2006069;27;2804882;-73
2023/04/15 01:13:52;;;;;;;;;16.67;13.33;;;;;11.62;69.22;100287.34;2035247;27;1831536;-73
2023/04/15 01:15:03;;;;;;;;;14.00;13.00;;;;;11.62;69.48;100287.34;2007739;27;2802445;-73
2023/04/15 01:16:15;;;;;;;;;13.00;13.00;;;;;11.62;69.21;100283.88;2000004;27;2807607;-73
2023/04/15 01:17:25;;;;;;;;;14.50;13.50;;;;;11.62;69.37;100283.88;2004523;27;2803411;-73
2023/04/15 01:18:37;;;;;;;;;13.00;13.00;;;;;11.62;69.56;100287.34;2023062;27;2803372;-73
2023/04/15 01:19:48;;;;;;;;;15.00;12.00;;;;;11.64;69.45;100289.91;1996830;28;2796113;-73
2023/04/15 01:21:02;;;;;;;;;9.00;6.75;;;;;11.62;69.41;100290.00;2026499;27;2735688;-73
2023/04/15 01:22:13;;;;;;;;;15.00;14.50;;;;;11.63;69.43;100291.69;2009521;27;2808613;-73
2023/04/15 01:23:24;;;;;;;;;14.00;12.00;;;;;11.63;69.43;100288.22;2012510;27;2798141;-73
2023/04/15 01:24:36;;;;;;;;;17.50;14.50;;;;;11.63;69.55;100294.31;2020605;27;2806545;-72
2023/04/15 01:25:52;;;;;;;;;10.00;7.67;;;;;11.63;69.39;100291.69;2037086;27;2755842;-73
2023/04/15 01:27:04;;;;;;;;;15.50;14.00;;;;;11.63;69.48;100290.84;2008247;27;2803395;-72
2023/04/15 01:28:15;;;;;;;;;11.00;10.00;;;;;11.62;69.67;100290.00;2001872;27;2781505;-72
2023/04/15 01:29:28;;;;;;;;;14.00;13.00;;;;;11.64;69.41;100297.81;2048269;28;1831637;-73
2023/04/15 01:30:38;;;;;;;;;11.00;10.00;;;;;11.63;69.49;100294.31;2023885;27;2779466;-72
2023/04/15 01:31:54;;;;;;;;;16.75;15.75;;;;;11.64;69.52;100287.28;2061890;27;1823242;-72
2023/04/15 01:33:05;;;;;;;;;17.00;13.50;;;;;11.63;69.53;100283.78;1998458;28;2804428;-72
2023/04/15 01:34:16;;;;;;;;;13.00;13.00;;;;;11.65;69.93;100278.47;2017587;27;2797529;-72
2023/04/15 01:35:27;;;;;;;;;15.50;15.50;;;;;11.64;69.55;100282.00;2037373;27;2810755;-72
2023/04/15 01:36:39;;;;;;;;;17.20;15.40;;;;;11.63;69.48;100283.78;2052804;27;1824870;-72
2023/04/15 01:37:55;;;;;;;;;14.50;13.17;;;;;11.64;69.88;100279.38;2054448;27;1829573;-72
2023/04/15 01:39:06;;;;;;;;;14.00;12.00;;;;;11.64;69.87;100277.59;2005341;27;2789900;-72
2023/04/15 01:40:17;;;;;;;;;18.00;14.00;;;;;11.64;69.84;100276.75;2022530;27;2804414;-72
2023/04/15 01:41:28;;;;;;;;;17.00;14.00;;;;;11.64;69.70;100268.84;2011045;28;2814846;-72
2023/04/15 01:42:39;;;;;;;;;13.00;13.00;;;;;11.63;69.75;100270.63;2010588;27;2802353;-72
2023/04/15 01:43:50;;;;;;;;;15.00;12.50;;;;;11.64;69.84;100268.84;2020279;27;2776313;-73
2023/04/15 01:45:01;;;;;;;;;15.50;14.00;;;;;11.63;69.94;100277.69;2041040;27;2800247;-72
2023/04/15 01:46:14;;;;;;;;;13.67;12.67;;;;;11.64;69.88;100284.66;2034465;27;1839984;-72
2023/04/15 01:47:25;;;;;;;;;14.50;13.00;;;;;11.63;69.67;100285.59;2003884;27;2804436;-72
2023/04/15 01:48:36;;;;;;;;;14.00;13.00;;;;;11.62;69.99;100287.34;2002689;27;2788800;-72
2023/04/15 01:49:48;;;;;;;;;16.80;15.80;;;;;11.62;69.92;100286.50;2034462;27;1832595;-72
2023/04/15 01:50:58;;;;;;;;;15.00;14.00;;;;;11.63;69.97;100301.38;2026797;27;2795079;-72
2023/04/15 01:52:09;;;;;;;;;15.00;14.50;;;;;11.62;70.03;100291.75;2005864;28;2804450;-72
2023/04/15 01:53:24;;;;;;;;;12.67;12.17;;;;;11.61;69.75;100290.91;2029265;27;2799194;-72
2023/04/15 01:54:34;;;;;;;;;15.50;14.50;;;;;11.62;69.76;100289.13;1996248;28;2806537;-73
2023/04/15 01:55:45;;;;;;;;;18.00;12.00;;;;;11.62;69.79;100297.88;2011391;27;3537737;-73
2023/04/15 01:56:56;;;;;;;;;14.00;13.00;;;;;11.62;69.98;100286.50;2020846;27;2792996;-73
2023/04/15 01:58:07;;;;;;;;;14.50;13.50;;;;;11.63;69.86;100288.22;2048456;27;2808999;-73
2023/04/15 01:59:18;;;;;;;;;17.00;10.50;;;;;11.61;70.07;100274.25;2025122;27;2807589;-72
2023/04/15 02:00:31;;;;;;;;;15.17;13.17;;;;;11.62;69.92;100278.59;2067869;27;2789810;-73
2023/04/15 02:01:45;;;;;;;;;14.00;12.83;;;;;11.62;70.27;100273.34;2041331;27;2792928;-73
2023/04/15 02:02:59;;;;;;;;;13.33;11.67;;;;;11.61;69.89;100280.38;2039448;27;1822730;-73
2023/04/15 02:04:15;;;;;;;;;13.00;13.00;;;;;11.61;70.00;100288.25;2008043;27;2788829;-73
2023/04/15 02:05:28;;;;;;;;;14.17;12.00;;;;;11.60;70.12;100283.94;2059694;27;1832152;-73
2023/04/15 02:06:39;;;;;;;;;15.00;14.00;;;;;11.60;70.03;100283.94;2000248;27;2785721;-73
2023/04/15 02:07:52;;;;;;;;;15.67;14.17;;;;;11.61;70.08;100285.63;2059060;27;2804944;-73
2023/04/15 02:09:03;;;;;;;;;13.00;13.00;;;;;11.61;70.22;100288.25;1999965;27;2804428;-73
2023/04/15 02:10:15;;;;;;;;;13.00;11.50;;;;;11.61;70.04;100285.63;2039151;27;2790213;-72
2023/04/15 02:11:27;;;;;;;;;13.00;12.00;;;;;11.61;70.29;100277.75;2022874;27;1846091;-72
2023/04/15 02:12:37;;;;;;;;;15.00;13.00;;;;;11.61;70.14;100276.88;2027773;27;2788841;-72
2023/04/15 02:13:48;;;;;;;;;19.50;12.50;;;;;11.58;70.31;100283.16;2016662;27;2831496;-72
2023/04/15 02:14:59;;;;;;;;;13.00;12.00;;;;;11.58;70.28;100276.09;2009237;27;2802389;-72
2023/04/15 02:16:20;;;;;;;;;15.00;12.33;;;;;11.58;70.15;100280.53;2007670;28;3531488;-72
2023/04/15 02:17:34;;;;;;;;;8.83;8.50;;;;;11.58;70.41;100281.34;2038310;28;2727828;-72
2023/04/15 02:18:45;;;;;;;;;13.00;10.67;;;;;11.58;70.09;100278.72;2019563;28;3511735;-72
2023/04/15 02:19:57;;;;;;;;;12.25;11.00;;;;;11.58;70.44;100278.72;2039322;27;1833611;-72
2023/04/15 02:21:07;;;;;;;;;12.67;11.00;;;;;11.57;70.29;100281.44;2028716;27;3511719;-72
2023/04/15 02:22:18;;;;;;;;;10.50;10.00;;;;;11.56;70.34;100287.63;2031326;28;2785783;-72
2023/04/15 02:23:29;;;;;;;;;8.00;8.00;;;;;11.55;70.23;100280.66;2039046;27;3453330;-72
2023/04/15 02:24:40;;;;;;;;;8.00;8.00;;;;;11.54;69.93;100282.44;2049853;27;3457547;-72
2023/04/15 02:25:51;;;;;;;;;10.67;9.67;;;;;11.54;70.18;100292.09;2047231;27;3490863;-72
2023/04/15 02:27:02;;;;;;;;;7.00;7.00;;;;;11.52;70.28;100286.91;2042456;28;2741928;-72
2023/04/15 02:28:15;;;;;;;;;6.33;6.17;;;;;11.52;70.58;100283.41;2028040;27;2732573;-72
2023/04/15 02:29:31;;;;;;;;;6.17;5.33;;;;;11.51;70.28;100289.63;2060755;27;2738838;-72
2023/04/15 02:30:47;;;;;;;;;5.50;5.50;;;;;11.48;70.32;100291.44;2050665;28;2735741;-72
2023/04/15 02:32:00;;;;;;;;;5.83;5.00;;;;;11.47;70.56;100292.38;2051814;28;2747159;-72
2023/04/15 02:33:13;;;;;;;;;4.67;3.50;;;;;11.47;70.34;100299.41;2027880;28;2740922;-72
2023/04/15 02:34:27;;;;;;;;;4.50;4.50;;;;;11.46;70.19;100295.91;2052916;27;2750265;-72
2023/04/15 02:35:43;;;;;;;;;4.00;4.00;;;;;11.45;70.45;100296.88;2022962;28;2746100;-72
2023/04/15 02:36:56;;;;;;;;;6.33;4.50;;;;;11.43;70.80;100290.78;2037583;28;2729433;-72
2023/04/15 02:38:10;;;;;;;;;7.50;6.00;;;;;11.43;70.78;100297.84;2023031;27;2734628;-72
2023/04/15 02:39:23;;;;;;;;;5.33;3.33;;;;;11.40;70.72;100292.72;2053223;27;2743049;-73
2023/04/15 02:40:36;;;;;;;;;5.17;5.17;;;;;11.40;70.83;100296.22;2034892;27;2730529;-73
2023/04/15 02:41:52;;;;;;;;;5.00;5.00;;;;;11.39;71.00;100296.25;2056707;27;2750260;-73
2023/04/15 02:43:06;;;;;;;;;8.00;7.33;;;;;11.38;70.93;100299.81;2033058;27;2733594;-73
2023/04/15 02:44:19;;;;;;;;;6.67;5.33;;;;;11.37;71.17;100306.84;2035826;27;2754422;-73
2023/04/15 02:45:32;;;;;;;;;3.67;3.50;;;;;11.36;71.34;100307.75;2061382;27;2748264;-73
2023/04/15 02:46:49;;;;;;;;;7.33;6.67;;;;;11.36;71.25;100302.50;2059823;27;2730474;-73
2023/04/15 02:48:04;;;;;;;;;7.00;7.00;;;;;11.35;71.25;100311.34;2002724;28;3451295;-73
2023/04/15 02:49:18;;;;;;;;;7.33;7.33;;;;;11.35;71.67;100308.69;2051572;28;2746089;-73
2023/04/15 02:50:31;;;;;;;;;9.00;7.50;;;;;11.33;71.43;100308.75;2033130;27;2735854;-73
2023/04/15 02:51:48;;;;;;;;;6.33;5.67;;;;;11.33;71.57;100313.19;2052160;28;2736189;-73
2023/04/15 02:53:01;;;;;;;;;6.50;6.50;;;;;11.33;71.46;100319.28;2054418;27;2739887;-73
2023/04/15 02:54:12;;;;;;;;;11.00;9.00;;;;;11.33;71.99;100319.28;2023501;28;2757570;-73
2023/04/15 02:55:23;;;;;;;;;11.00;9.33;;;;;11.32;71.76;100321.97;2030844;28;3491908;-73
2023/04/15 02:56:34;;;;;;;;;10.33;9.33;;;;;11.30;71.35;100319.44;2041312;28;3488784;-73
2023/04/15 02:57:46;;;;;;;;;8.00;7.75;;;;;11.30;71.49;100322.06;2055621;27;2744514;-73
2023/04/15 02:58:59;;;;;;;;;6.00;5.83;;;;;11.31;71.49;100331.66;2051005;28;2737757;-73
2023/04/15 03:00:10;;;;;;;;;10.00;9.00;;;;;11.30;71.73;100332.59;2026528;27;3485724;-72
2023/04/15 03:01:21;;;;;;;;;12.67;11.33;;;;;11.30;71.98;100329.09;2031458;27;3517978;-73
2023/04/15 03:02:36;;;;;;;;;11.33;10.00;;;;;11.30;71.85;100339.63;2063126;27;1842440;-73
2023/04/15 03:03:50;;;;;;;;;8.33;8.00;;;;;11.31;71.69;100341.34;2029976;28;2746135;-73
2023/04/15 03:05:00;;;;;;;;;10.33;9.00;;;;;11.31;71.78;100339.53;2025358;27;3475065;-73
2023/04/15 03:06:11;;;;;;;;;9.67;9.67;;;;;11.31;71.41;100342.16;2030716;28;3487756;-73
2023/04/15 03:07:22;;;;;;;;;11.00;11.00;;;;;11.33;71.63;100350.03;2045980;27;3510674;-73
2023/04/15 03:08:33;;;;;;;;;8.50;8.50;;;;;11.33;71.73;100347.38;2035777;28;2738827;-73
2023/04/15 03:09:45;;;;;;;;;15.25;11.25;;;;;11.33;71.54;100344.75;2053673;27;1847219;-73
2023/04/15 03:10:59;;;;;;;;;12.50;10.50;;;;;11.33;71.83;100352.66;2030732;27;2789827;-73
2023/04/15 03:12:10;;;;;;;;;14.00;12.00;;;;;11.32;71.70;100357.06;2006056;27;2799202;-73
2023/04/15 03:13:23;;;;;;;;;10.50;8.50;;;;;11.33;71.86;100363.16;2032970;27;1829995;-73
2023/04/15 03:14:33;;;;;;;;;12.00;12.00;;;;;11.32;71.67;100364.09;2025090;27;2809629;-73
2023/04/15 03:15:47;;;;;;;;;12.00;10.50;;;;;11.32;71.52;100364.09;2041199;28;2791922;-73
2023/04/15 03:16:58;;;;;;;;;10.00;10.00;;;;;11.32;71.79;100367.56;2003651;27;2776332;-73
2023/04/15 03:18:11;;;;;;;;;9.00;9.00;;;;;11.32;72.01;100364.09;2050335;28;1821674;-73
2023/04/15 03:19:22;;;;;;;;;15.00;13.00;;;;;11.32;71.89;100364.94;1993746;28;2794033;-73
2023/04/15 03:20:34;;;;;;;;;10.00;8.67;;;;;11.34;71.80;100372.75;2057483;27;1823214;-72
2023/04/15 03:21:45;;;;;;;;;10.50;9.50;;;;;11.34;71.55;100373.63;2002041;28;2776318;-73
2023/04/15 03:22:56;;;;;;;;;7.33;7.33;;;;;11.35;72.02;100377.13;2037073;27;2736759;-73
2023/04/15 03:24:07;;;;;;;;;11.33;9.33;;;;;11.34;71.66;100371.00;2039008;27;3490860;-72
2023/04/15 03:25:17;;;;;;;;;13.50;9.50;;;;;11.35;71.69;100377.13;2040452;27;2780532;-73
2023/04/15 03:26:30;;;;;;;;;11.00;9.00;;;;;11.32;71.78;100383.34;2051092;27;2770129;-73
2023/04/15 03:27:40;;;;;;;;;11.33;11.33;;;;;11.31;71.37;100388.69;2032452;27;3513807;-72
2023/04/15 03:28:52;;;;;;;;;4.67;4.00;;;;;11.28;71.62;100383.56;2026589;28;2734676;-73
2023/04/15 03:30:02;;;;;;;;;13.00;11.50;;;;;11.27;71.66;100387.97;1993587;28;2794044;-72
2023/04/15 03:31:13;;;;;;;;;13.50;11.00;;;;;11.27;71.77;100387.97;2042493;27;2782941;-72
2023/04/15 03:32:24;;;;;;;;;14.00;12.50;;;;;11.26;71.80;100396.75;2050802;27;2783578;-72
2023/04/15 03:33:35;;;;;;;;;12.00;11.00;;;;;11.25;71.76;100395.06;2035248;27;2790350;-72
2023/04/15 03:34:46;;;;;;;;;15.67;13.67;;;;;11.25;71.50;100397.69;2054604;27;1836833;-72
2023/04/15 03:35:56;;;;;;;;;13.67;12.67;;;;;11.24;71.75;100394.19;2000351;27;3512690;-72
2023/04/15 03:37:08;;;;;;;;;14.75;12.25;;;;;11.25;71.70;100393.28;2034786;27;1848234;-72
2023/04/15 03:38:19;;;;;;;;;15.00;11.50;;;;;11.24;71.50;100394.19;2030819;27;2797229;-72
2023/04/15 03:39:30;;;;;;;;;12.00;12.00;;;;;11.25;71.85;100392.44;2012408;27;2789831;-72
2023/04/15 03:40:42;;;;;;;;;13.00;12.00;;;;;11.25;71.95;100389.78;2035069;27;3505948;-72
2023/04/15 03:41:53;;;;;;;;;12.00;11.75;;;;;11.25;71.89;100387.16;2040013;27;1842073;-72
2023/04/15 03:43:03;;;;;;;;;12.00;12.00;;;;;11.24;71.73;100393.34;2030130;27;2793325;-72
2023/04/15 03:44:15;;;;;;;;;15.50;11.50;;;;;11.26;71.53;100402.00;2047561;27;2798183;-72
2023/04/15 03:45:25;;;;;;;;;8.50;8.50;;;;;11.24;71.75;100407.34;2035731;27;2733615;-72
2023/04/15 03:46:36;;;;;;;;;8.33;7.33;;;;;11.23;71.52;100403.03;2041778;27;2739823;-72
2023/04/15 03:47:48;;;;;;;;;7.00;7.00;;;;;11.21;71.52;100407.47;2053604;27;2742962;-72
2023/04/15 03:49:01;;;;;;;;;6.83;6.83;;;;;11.21;71.35;100402.22;2037078;27;2736740;-72
2023/04/15 03:50:12;;;;;;;;;9.67;9.00;;;;;11.20;71.46;100408.41;2011660;27;2762816;-72
2023/04/15 03:51:23;;;;;;;;;9.00;9.00;;;;;11.19;71.39;100406.69;2036440;28;2748614;-72
2023/04/15 03:52:35;;;;;;;;;8.25;8.25;;;;;11.20;71.66;100412.81;2044725;27;2742006;-72
2023/04/15 03:53:45;;;;;;;;;9.00;8.67;;;;;11.19;71.19;100409.31;2030547;27;3467386;-72
2023/04/15 03:54:56;;;;;;;;;9.50;9.50;;;;;11.18;71.39;100410.25;2042326;28;2769033;-72
2023/04/15 03:56:08;;;;;;;;;6.00;6.00;;;;;11.19;71.31;100416.34;2047791;28;2737726;-72
2023/04/15 03:57:21;;;;;;;;;7.83;7.83;;;;;11.17;71.08;100410.28;2031408;27;2746070;-72
2023/04/15 03:58:34;;;;;;;;;7.83;6.17;;;;;11.16;70.96;100416.50;2030820;27;2731500;-72
2023/04/15 03:59:45;;;;;;;;;7.67;7.67;;;;;11.15;71.15;100415.63;2009833;27;2729429;-73
2023/04/15 04:00:56;;;;;;;;;9.00;7.00;;;;;11.13;71.13;100418.31;2059341;27;2737773;-72
2023/04/15 04:02:09;;;;;;;;;8.50;6.33;;;;;11.12;70.90;100415.75;2058974;27;2729460;-73
2023/04/15 04:03:22;;;;;;;;;5.67;5.67;;;;;11.08;71.14;100420.28;2053393;28;2734665;-72
2023/04/15 04:04:36;;;;;;;;;7.67;6.00;;;;;11.07;70.76;100423.81;2058865;27;2741404;-72
2023/04/15 04:05:51;;;;;;;;;7.67;7.67;;;;;11.04;70.95;100434.44;2051510;28;2736192;-72
2023/04/15 04:07:04;;;;;;;;;5.33;4.83;;;;;11.01;71.27;100432.81;2051584;27;2745492;-73
2023/04/15 04:08:18;;;;;;;;;5.00;4.67;;;;;10.98;71.07;100432.94;2049879;28;2745116;-72
2023/04/15 04:09:31;;;;;;;;;6.00;5.00;;;;;10.94;71.04;100426.06;2049237;27;2749223;-72
2023/04/15 04:10:44;;;;;;;;;5.50;5.50;;;;;10.93;70.79;100432.28;2036968;27;2747199;-72
2023/04/15 04:11:55;;;;;;;;;5.33;4.00;;;;;10.91;70.94;100436.75;2032482;27;2754488;-72
2023/04/15 04:13:07;;;;;;;;;3.00;3.00;;;;;10.88;71.06;100434.22;2056815;27;2737804;-73
2023/04/15 04:14:25;;;;;;;;;2.83;2.83;;;;;10.84;70.81;100437.91;2052747;28;2740961;-72
2023/04/15 04:15:38;;;;;;;;;4.00;3.00;;;;;10.82;71.07;100440.56;2053582;27;2736731;-72
2023/04/15 04:16:51;;;;;;;;;3.00;3.00;;;;;10.82;71.07;100439.69;2058267;27;2746101;-72
2023/04/15 04:18:04;;;;;;;;;3.17;3.00;;;;;10.82;71.47;100448.44;2021667;28;2741995;-72
2023/04/15 04:19:18;;;;;;;;;2.67;2.67;;;;;10.80;71.11;100438.00;2028502;28;2724219;-72
2023/04/15 04:20:32;;;;;;;;;2.67;2.17;;;;;10.78;71.19;100442.47;2055284;27;2747164;-72
2023/04/15 04:21:45;;;;;;;;;3.00;3.00;;;;;10.77;71.31;100448.63;2054988;27;2735679;-72
2023/04/15 04:22:59;;;;;;;;;2.67;2.33;;;;;10.75;71.49;100445.22;2060807;27;2741951;-72
2023/04/15 04:24:12;;;;;;;;;2.67;2.67;;;;;10.70;71.62;100441.91;2033079;27;2741260;-72
2023/04/15 04:25:26;;;;;;;;;3.50;3.17;;;;;10.70;71.32;100447.16;2061011;27;2740993;-72
2023/04/15 04:26:39;;;;;;;;;2.83;2.83;;;;;10.67;71.52;100448.13;2036271;27;2736719;-72
2023/04/15 04:27:52;;;;;;;;;3.00;2.00;;;;;10.68;71.47;100443.72;2029894;27;2741956;-72
2023/04/15 04:29:06;;;;;;;;;5.67;4.17;;;;;10.68;72.00;100449.00;2050326;28;2752364;-73
2023/04/15 04:30:19;;;;;;;;;4.00;4.00;;;;;10.68;71.58;100456.88;2029829;27;2747203;-72
2023/04/15 04:31:32;;;;;;;;;6.83;3.50;;;;;10.67;71.27;100445.50;2028554;28;2750384;-72
2023/04/15 04:32:45;;;;;;;;;4.67;4.67;;;;;10.68;71.62;100455.13;2030388;27;2746126;-72
2023/04/15 04:33:58;;;;;;;;;4.33;4.33;;;;;10.68;71.59;100455.13;2052577;28;2739852;-72
2023/04/15 04:35:10;;;;;;;;;4.67;4.00;;;;;10.69;71.39;100450.72;2017762;28;2739920;-72
2023/04/15 04:36:23;;;;;;;;;4.17;4.17;;;;;10.69;71.57;100455.97;2052706;27;2745072;-72
2023/04/15 04:37:36;;;;;;;;;5.50;5.00;;;;;10.68;71.99;100454.25;2056908;27;2748194;-72
2023/04/15 04:38:49;;;;;;;;;5.00;5.00;;;;;10.69;71.42;100463.84;2029091;27;2735698;-72
2023/04/15 04:40:03;;;;;;;;;3.83;3.83;;;;;10.70;71.17;100462.94;2033486;27;2740910;-72
2023/04/15 04:41:17;;;;;;;;;5.83;4.83;;;;;10.70;71.17;100468.19;2056436;27;2746157;-72
2023/04/15 04:42:30;;;;;;;;;6.50;6.50;;;;;10.70;71.49;100462.94;2058714;27;2737758;-72
2023/04/15 04:43:44;;;;;;;;;6.00;5.00;;;;;10.69;71.43;100461.22;2037529;27;2739319;-72
2023/04/15 04:44:57;;;;;;;;;3.83;3.83;;;;;10.69;71.42;100463.84;2060995;27;2741988;-72
2023/04/15 04:46:10;;;;;;;;;8.17;7.00;;;;;10.70;71.58;100473.44;2060396;27;2733611;-72
2023/04/15 04:47:24;;;;;;;;;5.17;5.17;;;;;10.71;71.09;100479.56;2053064;27;2748213;-72
2023/04/15 04:48:38;;;;;;;;;6.00;6.00;;;;;10.71;71.38;100475.16;2032415;27;2744076;-72
2023/04/15 04:49:51;;;;;;;;;7.33;7.33;;;;;10.72;71.18;100473.41;2061691;27;2735681;-72
2023/04/15 04:51:04;;;;;;;;;4.33;4.33;;;;;10.71;70.96;100477.78;2061880;27;2734644;-72
2023/04/15 04:52:17;;;;;;;;;6.00;6.00;;;;;10.70;71.22;100473.44;2057607;27;2736753;-72
2023/04/15 04:53:31;;;;;;;;;7.00;5.50;;;;;10.69;71.35;100480.47;2034480;27;2744381;-72
2023/04/15 04:54:44;;;;;;;;;4.83;4.17;;;;;10.69;71.34;100480.47;2056923;27;2728430;-72
2023/04/15 04:55:57;;;;;;;;;3.00;3.00;;;;;10.68;71.27;100481.41;2051531;28;2749204;-72
2023/04/15 04:57:12;;;;;;;;;4.33;4.33;;;;;10.67;71.29;100482.28;2030509;27;2748205;-72
2023/04/15 04:58:26;;;;;;;;;5.17;4.17;;;;;10.66;71.30;100483.22;2049621;28;2745088;-72
2023/04/15 04:59:39;;;;;;;;;4.17;4.00;;;;;10.66;71.29;100483.22;2022480;28;2732076;-72
2023/04/15 05:00:53;;;;;;;;;4.67;4.00;;;;;10.66;71.38;100493.75;2021626;28;2746129;-72
2023/04/15 05:02:06;;;;;;;;;3.00;3.00;;;;;10.66;71.46;100493.75;2028541;27;2750839;-72
2023/04/15 05:03:19;;;;;;;;;3.00;3.00;;;;;10.65;71.42;100494.66;2059898;27;2750307;-72
2023/04/15 05:04:33;;;;;;;;;3.50;3.17;;;;;10.66;71.44;100495.50;2060806;27;2744035;-72
2023/04/15 05:05:48;;;;;;;;;4.00;3.00;;;;;10.66;71.47;100499.00;2026297;28;2737240;-72
2023/04/15 05:07:01;;;;;;;;;3.00;3.00;;;;;10.66;71.26;100498.13;2030163;27;2741983;-72
2023/04/15 05:08:15;;;;;;;;;1.67;1.67;;;;;10.68;71.26;100507.69;2061684;27;2732568;-72
2023/04/15 05:09:31;;;;;;;;;3.17;2.00;;;;;10.67;71.21;100500.69;2026275;27;2746105;-72
2023/04/15 05:10:44;;;;;;;;;3.00;3.00;;;;;10.67;71.35;100511.22;2030415;27;2750297;-72
2023/04/15 05:11:57;;;;;;;;;3.00;3.00;;;;;10.67;71.36;100510.34;2034465;27;2743028;-72
2023/04/15 05:13:11;;;;;;;;;3.00;3.00;;;;;10.66;71.19;100512.16;2055350;27;2743004;-72
2023/04/15 05:14:24;;;;;;;;;2.00;2.00;;;;;10.68;71.08;100517.34;2062630;27;2722156;-72
2023/04/15 05:15:40;;;;;;;;;1.67;1.67;;;;;10.67;71.22;100520.88;2060130;27;2729444;-72
2023/04/15 05:16:53;;;;;;;;;2.83;2.00;;;;;10.66;71.37;100519.16;2059716;27;2750308;-72
2023/04/15 05:18:06;;;;;;;;;2.50;2.50;;;;;10.65;71.27;100520.94;2060849;27;2724247;-72
2023/04/15 05:19:19;;;;;;;;;1.83;1.67;;;;;10.66;71.26;100532.31;2050824;28;2740272;-72
2023/04/15 05:20:32;;;;;;;;;1.00;1.00;;;;;10.65;71.07;100528.81;2051944;27;2724730;-72
2023/04/15 05:21:46;;;;;;;;;0.33;0.33;;;;;10.64;70.90;100531.50;2060864;27;2727384;-72
2023/04/15 05:22:59;;;;;;;;;0.83;0.83;;;;;10.65;71.19;100538.47;2057133;27;2726778;-72
2023/04/15 05:24:12;;;;;;;;;0.33;0.33;;;;;10.65;71.08;100538.47;2055276;27;2727413;-72